Time;durP1;ratioP1;P1;durP2;ratioP2;P2;SDS_P1;SDS_P2;PMS_P1;PMS_P2;Temp;Humidity;BMP_temperature;BMP_pressure;BME280_temperature;BME280_humidity;BME280_pressure;Samples;Min_cycle;Max_cycle;Signal;HPM_P1;HPM_P2
2023/01/01 00:02:16;;;;;;;42.85;30.23;;;;;;;;;;5076509;28;20238;-55
2023/01/01 00:04:44;;;;;;;30.92;24.58;;;;;;;;;;5077334;28;20288;-54
2023/01/01 00:07:10;;;;;;;25.77;20.10;;;;;;;;;;5085017;28;20241;-54
2023/01/01 00:12:21;;;;;;;17.25;11.90;;;;;;;;;;5085351;28;20237;-54
2023/01/01 00:14:47;;;;;;;13.60;11.23;;;;;;;;;;5082417;28;20686;-53
2023/01/01 00:17:14;;;;;;;13.77;9.80;;;;;;;;;;5063283;28;20321;-53
2023/01/01 00:19:40;;;;;;;10.40;8.40;;;;;;;;;;5065334;28;20238;-54
2023/01/01 00:22:08;;;;;;;12.43;8.95;;;;;;;;;;5079252;28;20260;-55
2023/01/01 00:24:35;;;;;;;10.32;8.00;;;;;;;;;;5084824;28;20603;-54
2023/01/01 00:27:02;;;;;;;12.38;7.43;;;;;;;;;;5081077;28;20243;-54
2023/01/01 00:29:28;;;;;;;9.32;6.55;;;;;;;;;;5081676;28;20222;-55
2023/01/01 00:31:55;;;;;;;9.80;7.15;;;;;;;;;;5085505;28;20252;-54
2023/01/01 00:34:22;;;;;;;10.38;6.43;;;;;;;;;;5085207;28;20245;-53
2023/01/01 00:36:48;;;;;;;7.10;5.45;;;;;;;;;;5077355;28;20238;-53
2023/01/01 00:39:16;;;;;;;6.47;4.40;;;;;;;;;;5078802;28;20235;-54
2023/01/01 00:41:43;;;;;;;9.77;5.05;;;;;;;;;;5073127;28;20227;-54
2023/01/01 00:44:10;;;;;;;6.40;3.47;;;;;;;;;;5085030;28;20258;-54
2023/01/01 00:46:36;;;;;;;5.32;3.95;;;;;;;;;;5075348;28;20869;-55
2023/01/01 00:49:03;;;;;;;8.57;4.45;;;;;;;;;;5064276;28;20318;-56
2023/01/01 00:51:30;;;;;;;7.43;4.18;;;;;;;;;;5065625;28;20245;-55
2023/01/01 00:53:57;;;;;;;7.47;4.00;;;;;;;;;;5072172;28;20239;-54
2023/01/01 00:56:25;;;;;;;8.68;4.43;;;;;;;;;;5064283;28;20289;-54
2023/01/01 00:58:51;;;;;;;9.52;4.65;;;;;;;;;;5074666;28;20234;-53
2023/01/01 01:01:18;;;;;;;6.03;4.05;;;;;;;;;;5068612;28;20674;-53
2023/01/01 01:03:44;;;;;;;6.75;4.28;;;;;;;;;;5064338;28;20325;-54
2023/01/01 01:06:12;;;;;;;4.45;3.40;;;;;;;;;;5064119;28;20278;-54
2023/01/01 01:08:40;;;;;;;5.85;5.25;;;;;;;;;;5064301;28;20231;-53
2023/01/01 01:11:07;;;;;;;7.78;5.75;;;;;;;;;;5064522;28;20238;-54
2023/01/01 01:13:35;;;;;;;6.93;5.28;;;;;;;;;;5064369;28;20245;-55
2023/01/01 01:16:07;;;;;;;9.05;3.85;;;;;;;;;;5078635;28;20914;-54
2023/01/01 01:18:34;;;;;;;3.55;2.55;;;;;;;;;;5081477;28;20254;-56
2023/01/01 01:21:01;;;;;;;9.00;3.35;;;;;;;;;;5083952;28;20255;-54
2023/01/01 01:23:27;;;;;;;5.82;3.10;;;;;;;;;;5078249;28;20649;-54
2023/01/01 01:25:54;;;;;;;4.50;3.28;;;;;;;;;;5071935;28;20241;-54
2023/01/01 01:28:20;;;;;;;5.75;3.60;;;;;;;;;;5062338;28;20254;-55
2023/01/01 01:30:48;;;;;;;5.50;2.97;;;;;;;;;;5063149;28;20235;-54
2023/01/01 01:33:16;;;;;;;6.47;3.78;;;;;;;;;;5064175;28;20243;-54
2023/01/01 01:35:43;;;;;;;5.25;3.35;;;;;;;;;;5063154;28;20756;-54
2023/01/01 01:38:10;;;;;;;5.45;3.58;;;;;;;;;;5072758;28;20321;-54
2023/01/01 01:40:37;;;;;;;12.40;3.72;;;;;;;;;;5076140;28;20230;-54
2023/01/01 01:43:03;;;;;;;8.57;4.10;;;;;;;;;;5063763;28;20257;-57
2023/01/01 01:45:30;;;;;;;8.25;4.20;;;;;;;;;;5064711;28;20296;-54
2023/01/01 01:47:59;;;;;;;5.28;4.13;;;;;;;;;;5063457;28;20298;-54
2023/01/01 01:50:26;;;;;;;5.65;4.65;;;;;;;;;;5064251;28;20809;-54
2023/01/01 01:52:59;;;;;;;4.65;4.07;;;;;;;;;;5079206;28;20242;-53
2023/01/01 01:55:28;;;;;;;5.85;3.97;;;;;;;;;;5079974;28;20230;-55
2023/01/01 01:57:55;;;;;;;6.35;4.25;;;;;;;;;;5075788;28;20680;-55
2023/01/01 02:00:22;;;;;;;4.95;3.65;;;;;;;;;;5084581;28;20237;-54
2023/01/01 02:02:52;;;;;;;10.45;8.70;;;;;;;;;;5084421;28;20789;-53
2023/01/01 02:05:21;;;;;;;11.82;9.77;;;;;;;;;;5084308;28;20234;-54
2023/01/01 02:07:49;;;;;;;10.57;7.82;;;;;;;;;;5083952;28;20234;-55
2023/01/01 02:10:15;;;;;;;6.88;3.70;;;;;;;;;;5084507;28;20292;-54
2023/01/01 02:12:42;;;;;;;7.68;4.43;;;;;;;;;;5083929;28;20436;-54
2023/01/01 02:15:09;;;;;;;5.68;3.95;;;;;;;;;;5078196;28;20239;-55
2023/01/01 02:17:40;;;;;;;8.00;5.15;;;;;;;;;;5063619;28;20313;-54
2023/01/01 02:20:27;;;;;;;6.13;4.68;;;;;;;;;;5066133;28;20333;-54
2023/01/01 02:23:02;;;;;;;5.65;4.10;;;;;;;;;;5079438;28;20263;-54
2023/01/01 02:25:34;;;;;;;7.07;3.88;;;;;;;;;;5080477;28;20289;-55
2023/01/01 02:28:05;;;;;;;4.20;3.42;;;;;;;;;;5062867;28;20310;-55
2023/01/01 02:30:35;;;;;;;5.57;4.20;;;;;;;;;;5064112;28;20227;-55
2023/01/01 02:33:03;;;;;;;4.82;3.25;;;;;;;;;;5063501;28;20246;-54
2023/01/01 02:35:34;;;;;;;5.82;3.55;;;;;;;;;;5075259;28;20852;-56
2023/01/01 02:38:04;;;;;;;4.05;3.53;;;;;;;;;;5070255;28;20233;-54
2023/01/01 02:40:31;;;;;;;6.38;3.45;;;;;;;;;;5065368;28;20628;-55
2023/01/01 02:42:57;;;;;;;5.35;3.85;;;;;;;;;;5083681;28;20239;-55
2023/01/01 02:45:24;;;;;;;4.88;3.85;;;;;;;;;;5067532;28;20641;-54
2023/01/01 02:47:52;;;;;;;6.55;3.83;;;;;;;;;;5066474;28;20960;-54
2023/01/01 02:50:20;;;;;;;9.45;5.05;;;;;;;;;;5066055;28;20231;-54
2023/01/01 02:52:56;;;;;;;8.02;3.67;;;;;;;;;;5069526;28;20239;-54
2023/01/01 02:55:31;;;;;;;5.35;3.20;;;;;;;;;;5087414;28;20238;-54
2023/01/01 03:00:17;;;;;;;4.90;4.10;;;;;;;;;;5074390;28;20274;-54
2023/01/01 03:00:47;;;;;;;6.97;3.60;;;;;;;;;;5067793;28;20235;-54
2023/01/01 03:03:19;;;;;;;8.00;4.18;;;;;;;;;;5067733;28;20245;-54
2023/01/01 03:08:38;;;;;;;5.60;4.10;;;;;;;;;;5066485;28;20238;-54
2023/01/01 03:11:07;;;;;;;7.00;3.97;;;;;;;;;;5063379;28;20262;-54
2023/01/01 03:13:36;;;;;;;5.28;3.65;;;;;;;;;;5066812;28;20317;-54
2023/01/01 03:16:04;;;;;;;7.10;4.47;;;;;;;;;;5076330;28;20259;-54
2023/01/01 03:18:34;;;;;;;5.72;3.83;;;;;;;;;;5065725;28;20231;-54
2023/01/01 03:21:01;;;;;;;6.45;3.95;;;;;;;;;;5067029;28;20314;-54
2023/01/01 03:23:31;;;;;;;5.35;3.30;;;;;;;;;;5066277;28;20259;-54
2023/01/01 03:26:00;;;;;;;4.47;3.83;;;;;;;;;;5070892;28;20231;-54
2023/01/01 03:28:28;;;;;;;7.82;4.55;;;;;;;;;;5066350;28;20231;-53
2023/01/01 03:30:56;;;;;;;7.28;3.63;;;;;;;;;;5067805;28;20235;-54
2023/01/01 03:33:26;;;;;;;8.77;4.38;;;;;;;;;;5081868;28;20265;-54
2023/01/01 03:35:57;;;;;;;7.30;3.83;;;;;;;;;;5066382;28;20239;-54
2023/01/01 03:38:26;;;;;;;6.05;3.17;;;;;;;;;;5071248;28;20246;-54
2023/01/01 03:40:54;;;;;;;7.70;3.90;;;;;;;;;;5069022;28;20285;-55
2023/01/01 03:43:23;;;;;;;7.47;3.25;;;;;;;;;;5081204;28;20239;-54
2023/01/01 03:45:51;;;;;;;5.60;3.38;;;;;;;;;;5068796;28;20231;-54
2023/01/01 03:48:17;;;;;;;9.98;4.47;;;;;;;;;;5074044;28;20327;-53
2023/01/01 03:50:50;;;;;;;9.38;4.07;;;;;;;;;;5087983;28;20780;-55
2023/01/01 03:53:21;;;;;;;4.05;3.50;;;;;;;;;;5088165;28;20727;-54
2023/01/01 03:55:50;;;;;;;5.85;3.35;;;;;;;;;;5088235;28;20677;-57
2023/01/01 03:58:21;;;;;;;4.97;3.58;;;;;;;;;;5085976;28;20338;-54
2023/01/01 04:00:50;;;;;;;7.43;3.85;;;;;;;;;;5086582;28;20234;-55
2023/01/01 04:03:20;;;;;;;5.50;3.78;;;;;;;;;;5085855;28;20242;-55
2023/01/01 04:05:46;;;;;;;9.05;3.72;;;;;;;;;;5086699;28;20313;-55
2023/01/01 04:08:14;;;;;;;8.68;4.25;;;;;;;;;;5085521;28;20255;-55
2023/01/01 04:10:43;;;;;;;5.95;4.13;;;;;;;;;;5086282;28;20261;-54
2023/01/01 04:13:09;;;;;;;8.80;3.58;;;;;;;;;;5076819;28;20283;-55
2023/01/01 04:15:36;;;;;;;6.97;3.92;;;;;;;;;;5077024;28;20242;-54
2023/01/01 04:18:03;;;;;;;10.35;4.18;;;;;;;;;;5065650;28;20243;-54
2023/01/01 04:20:30;;;;;;;5.03;3.80;;;;;;;;;;5065184;28;20227;-54
2023/01/01 04:22:57;;;;;;;5.15;4.50;;;;;;;;;;5064964;28;20288;-54
2023/01/01 04:25:23;;;;;;;6.40;3.40;;;;;;;;;;5068118;28;20725;-54
2023/01/01 04:27:51;;;;;;;5.95;3.35;;;;;;;;;;5075684;28;20226;-53
2023/01/01 04:30:18;;;;;;;5.00;3.47;;;;;;;;;;5085456;28;20313;-54
2023/01/01 04:32:44;;;;;;;3.70;3.20;;;;;;;;;;5066645;28;20284;-54
2023/01/01 04:35:12;;;;;;;6.32;3.78;;;;;;;;;;5065689;28;20239;-54
2023/01/01 04:37:39;;;;;;;4.70;3.30;;;;;;;;;;5070880;28;20235;-53
2023/01/01 04:40:06;;;;;;;8.23;3.60;;;;;;;;;;5065554;28;20255;-56
2023/01/01 04:42:33;;;;;;;4.57;4.03;;;;;;;;;;5081104;28;20234;-54
2023/01/01 04:45:01;;;;;;;9.27;3.85;;;;;;;;;;5077712;28;20891;-53
2023/01/01 04:47:27;;;;;;;10.38;4.97;;;;;;;;;;5084410;28;20512;-53
2023/01/01 04:49:54;;;;;;;8.23;4.35;;;;;;;;;;5085432;28;20234;-54
2023/01/01 04:52:21;;;;;;;6.93;3.88;;;;;;;;;;5076734;28;20241;-54
2023/01/01 04:54:47;;;;;;;6.00;3.88;;;;;;;;;;5084700;28;20234;-54
2023/01/01 04:57:14;;;;;;;5.22;3.58;;;;;;;;;;5078082;28;20231;-54
2023/01/01 04:59:41;;;;;;;4.68;3.58;;;;;;;;;;5065717;28;20227;-54
2023/01/01 05:02:09;;;;;;;5.80;3.30;;;;;;;;;;5065761;28;20255;-54
2023/01/01 05:04:35;;;;;;;6.47;3.70;;;;;;;;;;5064728;28;20234;-54
2023/01/01 05:07:02;;;;;;;11.80;3.95;;;;;;;;;;5065223;28;20243;-54
2023/01/01 05:09:29;;;;;;;6.88;3.80;;;;;;;;;;5072678;28;20265;-59
2023/01/01 05:11:55;;;;;;;5.63;3.72;;;;;;;;;;5064005;28;20242;-54
2023/01/01 05:14:22;;;;;;;6.60;3.38;;;;;;;;;;5064742;28;20254;-55
2023/01/01 05:16:48;;;;;;;5.80;3.83;;;;;;;;;;5064293;28;20246;-53
2023/01/01 05:19:16;;;;;;;7.57;3.78;;;;;;;;;;5064807;28;20792;-53
2023/01/01 05:21:44;;;;;;;4.20;3.47;;;;;;;;;;5064406;28;20231;-54
2023/01/01 05:24:11;;;;;;;8.85;3.88;;;;;;;;;;5069662;28;20284;-54
2023/01/01 05:26:38;;;;;;;7.18;3.65;;;;;;;;;;5072571;28;20300;-54
2023/01/01 05:29:05;;;;;;;6.13;3.85;;;;;;;;;;5065607;28;20239;-54
2023/01/01 05:31:33;;;;;;;5.65;3.33;;;;;;;;;;5065332;28;20227;-55
2023/01/01 05:34:00;;;;;;;5.10;3.55;;;;;;;;;;5084713;28;20227;-53
2023/01/01 05:36:29;;;;;;;7.57;4.07;;;;;;;;;;5078574;28;20868;-54
2023/01/01 05:38:56;;;;;;;7.22;3.65;;;;;;;;;;5067260;28;20827;-53
2023/01/01 05:41:22;;;;;;;6.03;3.67;;;;;;;;;;5083703;28;20234;-53
2023/01/01 05:43:49;;;;;;;8.13;3.38;;;;;;;;;;5083652;28;20233;-54
2023/01/01 05:46:16;;;;;;;5.25;2.80;;;;;;;;;;5084540;28;20716;-56
2023/01/01 05:48:43;;;;;;;4.32;3.45;;;;;;;;;;5083913;28;20304;-54
2023/01/01 05:51:11;;;;;;;6.32;3.72;;;;;;;;;;5085411;28;20303;-54
2023/01/01 05:53:39;;;;;;;4.22;3.13;;;;;;;;;;5085440;28;20241;-54
2023/01/01 05:56:06;;;;;;;5.65;3.22;;;;;;;;;;5084048;28;20274;-53
2023/01/01 05:58:33;;;;;;;8.77;3.17;;;;;;;;;;5067777;28;20235;-54
2023/01/01 06:01:05;;;;;;;7.03;3.22;;;;;;;;;;5063839;28;20288;-54
2023/01/01 06:03:32;;;;;;;3.03;2.65;;;;;;;;;;5065035;28;20235;-53
2023/01/01 06:06:02;;;;;;;5.20;3.20;;;;;;;;;;5070420;28;20231;-53
2023/01/01 06:08:29;;;;;;;5.43;3.08;;;;;;;;;;5063817;28;20235;-55
2023/01/01 06:10:59;;;;;;;7.53;2.83;;;;;;;;;;5066995;28;20258;-53
2023/01/01 06:13:26;;;;;;;4.47;2.88;;;;;;;;;;5068666;28;20698;-53
2023/01/01 06:15:53;;;;;;;5.60;2.83;;;;;;;;;;5074872;28;20253;-55
2023/01/01 06:18:20;;;;;;;4.57;2.33;;;;;;;;;;5074606;28;20239;-54
2023/01/01 06:20:46;;;;;;;5.90;3.28;;;;;;;;;;5089573;28;20230;-54
2023/01/01 06:23:13;;;;;;;3.22;2.55;;;;;;;;;;5074183;28;20700;-53
2023/01/01 06:25:39;;;;;;;6.60;2.90;;;;;;;;;;5071473;28;20330;-54
2023/01/01 06:28:07;;;;;;;4.40;2.55;;;;;;;;;;5068071;28;20241;-54
2023/01/01 06:30:34;;;;;;;7.28;3.50;;;;;;;;;;5068222;28;20243;-55
2023/01/01 06:33:00;;;;;;;5.13;3.28;;;;;;;;;;5067386;28;20740;-54
2023/01/01 06:35:27;;;;;;;5.40;2.90;;;;;;;;;;5068453;28;20284;-55
2023/01/01 06:37:54;;;;;;;7.28;3.30;;;;;;;;;;5078434;28;20881;-55
2023/01/01 06:40:20;;;;;;;4.90;2.42;;;;;;;;;;5087686;28;20257;-54
2023/01/01 06:42:48;;;;;;;3.33;2.28;;;;;;;;;;5087617;28;20235;-55
2023/01/01 06:45:16;;;;;;;3.90;2.50;;;;;;;;;;5087255;28;20250;-55
2023/01/01 06:47:42;;;;;;;3.45;2.90;;;;;;;;;;5087484;28;20241;-54
2023/01/01 06:50:09;;;;;;;6.70;3.55;;;;;;;;;;5086891;28;20235;-55
2023/01/01 06:52:36;;;;;;;7.13;2.90;;;;;;;;;;5079498;28;20247;-56
2023/01/01 06:55:02;;;;;;;3.72;2.65;;;;;;;;;;5088438;28;20243;-54
2023/01/01 06:57:29;;;;;;;6.60;2.85;;;;;;;;;;5077472;28;20281;-54
2023/01/01 06:59:55;;;;;;;7.55;3.28;;;;;;;;;;5067016;28;20239;-54
2023/01/01 07:02:23;;;;;;;4.90;3.45;;;;;;;;;;5085225;28;20785;-55
2023/01/01 07:04:50;;;;;;;4.38;2.10;;;;;;;;;;5086443;28;20234;-53
2023/01/01 07:07:16;;;;;;;7.53;3.30;;;;;;;;;;5079202;28;20822;-54
2023/01/01 07:09:43;;;;;;;3.80;2.67;;;;;;;;;;5066894;28;20269;-54
2023/01/01 07:12:09;;;;;;;3.83;2.75;;;;;;;;;;5066714;28;20941;-54
2023/01/01 07:14:36;;;;;;;5.10;2.75;;;;;;;;;;5066637;28;20226;-55
2023/01/01 07:17:03;;;;;;;3.88;2.88;;;;;;;;;;5079677;28;20262;-55
2023/01/01 07:19:30;;;;;;;4.05;2.65;;;;;;;;;;5087583;28;20231;-54
2023/01/01 07:21:57;;;;;;;3.90;2.75;;;;;;;;;;5075089;28;20318;-54
2023/01/01 07:24:23;;;;;;;7.18;3.42;;;;;;;;;;5065790;28;20238;-54
2023/01/01 07:26:50;;;;;;;5.10;2.90;;;;;;;;;;5069581;28;20288;-54
2023/01/01 07:29:16;;;;;;;3.42;2.80;;;;;;;;;;5066587;28;20318;-54
2023/01/01 07:31:44;;;;;;;3.20;2.90;;;;;;;;;;5074000;28;20230;-55
2023/01/01 07:34:12;;;;;;;7.57;3.78;;;;;;;;;;5078595;28;20242;-58
2023/01/01 07:36:40;;;;;;;4.82;2.97;;;;;;;;;;5079168;28;20239;-54
2023/01/01 07:39:07;;;;;;;3.58;2.67;;;;;;;;;;5066633;28;20789;-54
2023/01/01 07:41:33;;;;;;;3.10;2.80;;;;;;;;;;5075005;28;20230;-54
2023/01/01 07:44:00;;;;;;;7.50;3.17;;;;;;;;;;5086302;28;20235;-54
2023/01/01 07:46:27;;;;;;;5.85;3.58;;;;;;;;;;5086035;28;20231;-54
2023/01/01 07:48:53;;;;;;;7.35;3.33;;;;;;;;;;5086007;28;20234;-54
2023/01/01 07:51:20;;;;;;;7.07;3.47;;;;;;;;;;5085098;28;20227;-54
2023/01/01 07:53:48;;;;;;;3.33;2.97;;;;;;;;;;5086715;28;20325;-54
2023/01/01 07:56:14;;;;;;;4.32;3.10;;;;;;;;;;5085905;28;20317;-56
2023/01/01 07:58:41;;;;;;;5.40;3.22;;;;;;;;;;5076612;28;20242;-53
2023/01/01 08:01:09;;;;;;;5.35;3.03;;;;;;;;;;5067217;28;20293;-54
2023/01/01 08:03:35;;;;;;;7.22;3.70;;;;;;;;;;5066785;28;20258;-56
2023/01/01 08:06:05;;;;;;;8.73;3.80;;;;;;;;;;5071362;28;20241;-54
2023/01/01 08:08:32;;;;;;;5.88;3.65;;;;;;;;;;5077280;28;20257;-54
2023/01/01 08:11:01;;;;;;;5.63;3.47;;;;;;;;;;5073837;28;20694;-54
2023/01/01 08:13:28;;;;;;;4.20;3.15;;;;;;;;;;5073192;28;20239;-55
2023/01/01 08:15:56;;;;;;;5.43;3.05;;;;;;;;;;5085725;28;20284;-55
2023/01/01 08:18:22;;;;;;;6.13;3.28;;;;;;;;;;5085294;28;20604;-56
2023/01/01 08:20:49;;;;;;;9.05;3.92;;;;;;;;;;5083489;28;20254;-55
2023/01/01 08:23:16;;;;;;;7.75;3.92;;;;;;;;;;5065229;28;20247;-54
2023/01/01 08:25:42;;;;;;;6.70;3.28;;;;;;;;;;5068969;28;20226;-54
2023/01/01 08:28:10;;;;;;;6.43;3.38;;;;;;;;;;5070004;28;20302;-54
2023/01/01 08:30:36;;;;;;;4.75;4.15;;;;;;;;;;5077159;28;20241;-56
2023/01/01 08:33:04;;;;;;;5.55;3.60;;;;;;;;;;5065744;28;20235;-54
2023/01/01 08:35:31;;;;;;;6.13;3.63;;;;;;;;;;5066750;28;20923;-54
2023/01/01 08:37:57;;;;;;;8.75;3.88;;;;;;;;;;5092406;28;20237;-54
2023/01/01 08:40:24;;;;;;;9.38;4.13;;;;;;;;;;5095857;28;20296;-55
2023/01/01 08:42:51;;;;;;;6.82;3.85;;;;;;;;;;5075663;28;20239;-54
2023/01/01 08:45:18;;;;;;;6.03;3.35;;;;;;;;;;5076530;28;20249;-55
2023/01/01 08:47:45;;;;;;;5.93;4.22;;;;;;;;;;5066128;28;20238;-59
2023/01/01 08:50:12;;;;;;;8.20;4.50;;;;;;;;;;5064863;28;20233;-54
2023/01/01 08:52:38;;;;;;;5.20;3.85;;;;;;;;;;5072156;28;20269;-55
2023/01/01 08:55:05;;;;;;;4.47;3.38;;;;;;;;;;5071405;28;20788;-55
2023/01/01 08:57:32;;;;;;;5.43;3.88;;;;;;;;;;5065376;28;20239;-55
2023/01/01 08:59:59;;;;;;;4.90;3.60;;;;;;;;;;5064758;28;20243;-54
2023/01/01 09:02:27;;;;;;;10.77;4.78;;;;;;;;;;5064553;28;20601;-54
2023/01/01 09:04:53;;;;;;;7.88;4.95;;;;;;;;;;5063394;28;20219;-55
2023/01/01 09:07:20;;;;;;;6.40;3.85;;;;;;;;;;5078475;28;20234;-55
2023/01/01 09:09:47;;;;;;;5.03;3.60;;;;;;;;;;5063013;28;20238;-54
2023/01/01 09:12:15;;;;;;;4.35;3.47;;;;;;;;;;5068607;28;20304;-55
2023/01/01 09:14:41;;;;;;;4.43;3.88;;;;;;;;;;5081306;28;20252;-54
2023/01/01 09:17:08;;;;;;;8.18;4.25;;;;;;;;;;5064455;28;20255;-54
2023/01/01 09:19:36;;;;;;;4.65;3.63;;;;;;;;;;5066674;28;20237;-54
2023/01/01 09:22:03;;;;;;;5.22;3.42;;;;;;;;;;5067439;28;20246;-55
2023/01/01 09:24:29;;;;;;;5.95;3.78;;;;;;;;;;5074150;28;20318;-53
2023/01/01 09:26:56;;;;;;;5.40;3.97;;;;;;;;;;5082330;28;20234;-54
2023/01/01 09:29:23;;;;;;;4.32;3.42;;;;;;;;;;5085655;28;20256;-56
2023/01/01 09:31:49;;;;;;;6.85;3.67;;;;;;;;;;5084545;28;20231;-56
2023/01/01 09:34:16;;;;;;;7.03;3.17;;;;;;;;;;5085760;28;20234;-54
2023/01/01 09:36:45;;;;;;;6.50;3.50;;;;;;;;;;5076788;28;20325;-55
2023/01/01 09:39:13;;;;;;;5.50;3.15;;;;;;;;;;5064333;28;20231;-54
2023/01/01 09:41:54;;;;;;;7.65;5.10;;;;;;;;;;5073229;28;20249;-54
2023/01/01 09:44:27;;;;;;;5.18;3.67;;;;;;;;;;5083026;28;20245;-53
2023/01/01 09:46:54;;;;;;;5.32;3.22;;;;;;;;;;5083695;28;20292;-54
2023/01/01 09:49:25;;;;;;;4.15;3.17;;;;;;;;;;5086175;28;20226;-54
2023/01/01 09:51:54;;;;;;;5.38;3.47;;;;;;;;;;5077846;28;21840;-53
2023/01/01 09:54:26;;;;;;;3.88;3.17;;;;;;;;;;5071891;28;20247;-55
2023/01/01 09:56:54;;;;;;;5.70;3.40;;;;;;;;;;5068001;28;20262;-55
2023/01/01 09:59:22;;;;;;;6.88;3.85;;;;;;;;;;5068035;28;20238;-54
2023/01/01 10:01:52;;;;;;;3.25;2.80;;;;;;;;;;5067816;28;20814;-55
2023/01/01 10:04:26;;;;;;;5.95;2.65;;;;;;;;;;5070333;28;20262;-54
2023/01/01 10:06:58;;;;;;;4.63;2.97;;;;;;;;;;5087907;28;20241;-55
2023/01/01 10:09:27;;;;;;;5.60;4.50;;;;;;;;;;5072308;28;20238;-55
2023/01/01 10:11:56;;;;;;;5.97;3.20;;;;;;;;;;5067910;28;20731;-53
2023/01/01 10:14:25;;;;;;;3.00;2.80;;;;;;;;;;5068309;28;20235;-54
2023/01/01 10:16:53;;;;;;;3.90;3.03;;;;;;;;;;5066215;28;20322;-54
2023/01/01 10:19:24;;;;;;;4.53;3.22;;;;;;;;;;5068335;28;20239;-54
2023/01/01 10:21:53;;;;;;;4.78;2.72;;;;;;;;;;5077159;28;20933;-55
2023/01/01 10:24:31;;;;;;;5.03;2.90;;;;;;;;;;5082970;28;20647;-53
2023/01/01 10:26:58;;;;;;;5.28;3.15;;;;;;;;;;5072265;28;20231;-56
2023/01/01 10:29:28;;;;;;;6.47;2.75;;;;;;;;;;5067610;28;20733;-54
2023/01/01 10:31:56;;;;;;;3.65;2.20;;;;;;;;;;5067708;28;20242;-54
2023/01/01 10:34:24;;;;;;;4.80;2.90;;;;;;;;;;5059352;28;20241;-56
2023/01/01 10:36:53;;;;;;;4.03;2.80;;;;;;;;;;5076248;28;20246;-55
2023/01/01 10:39:19;;;;;;;6.97;4.78;;;;;;;;;;5088225;28;20295;-54
2023/01/01 10:41:48;;;;;;;4.95;2.72;;;;;;;;;;5078755;28;20230;-54
2023/01/01 10:44:15;;;;;;;4.65;2.95;;;;;;;;;;5067310;28;20259;-55
2023/01/01 10:46:45;;;;;;;5.38;2.78;;;;;;;;;;5079845;28;20792;-54
2023/01/01 10:49:12;;;;;;;4.85;2.40;;;;;;;;;;5086263;28;20308;-55
2023/01/01 10:51:43;;;;;;;4.35;2.35;;;;;;;;;;5077661;28;20237;-54
2023/01/01 10:54:21;;;;;;;3.05;2.40;;;;;;;;;;5074600;28;20759;-56
2023/01/01 10:56:49;;;;;;;4.05;2.17;;;;;;;;;;5067086;28;20608;-54
2023/01/01 10:59:32;;;;;;;6.38;3.03;;;;;;;;;;5068182;28;20314;-54
2023/01/01 11:02:13;;;;;;;3.58;2.38;;;;;;;;;;5086047;28;20292;-54
2023/01/01 11:04:40;;;;;;;7.28;3.35;;;;;;;;;;5076700;28;20318;-54
2023/01/01 11:07:07;;;;;;;6.50;3.50;;;;;;;;;;5066490;28;20749;-54
2023/01/01 11:09:37;;;;;;;3.35;2.72;;;;;;;;;;5067897;28;20234;-53
2023/01/01 11:12:06;;;;;;;3.65;2.45;;;;;;;;;;5066737;28;20242;-55
2023/01/01 11:14:37;;;;;;;3.72;2.65;;;;;;;;;;5067140;28;20300;-55
2023/01/01 11:17:05;;;;;;;3.53;2.15;;;;;;;;;;5068332;28;20618;-54
2023/01/01 11:19:32;;;;;;;5.35;2.53;;;;;;;;;;5078170;28;20234;-54
2023/01/01 11:21:59;;;;;;;4.25;2.65;;;;;;;;;;5079171;28;20238;-54
2023/01/01 11:24:27;;;;;;;6.95;2.53;;;;;;;;;;5087406;28;20234;-54
2023/01/01 11:27:11;;;;;;;4.20;2.25;;;;;;;;;;5069280;28;20721;-55
2023/01/01 11:29:39;;;;;;;4.25;2.60;;;;;;;;;;5066063;28;20873;-55
2023/01/01 11:32:07;;;;;;;5.95;2.55;;;;;;;;;;5067563;28;20239;-55
2023/01/01 11:34:35;;;;;;;6.15;3.03;;;;;;;;;;5066199;28;20242;-55
2023/01/01 11:37:09;;;;;;;5.40;2.28;;;;;;;;;;5075165;28;20246;-54
2023/01/01 11:39:36;;;;;;;4.13;2.60;;;;;;;;;;5082389;28;20226;-54
2023/01/01 11:42:04;;;;;;;4.90;3.05;;;;;;;;;;5078378;28;20716;-54
2023/01/01 11:44:34;;;;;;;5.22;2.85;;;;;;;;;;5069549;28;20227;-53
2023/01/01 11:47:04;;;;;;;2.70;2.47;;;;;;;;;;5085732;28;20280;-54
2023/01/01 11:49:31;;;;;;;2.85;2.40;;;;;;;;;;5084854;28;20675;-54
2023/01/01 11:51:58;;;;;;;2.10;1.90;;;;;;;;;;5084944;28;20262;-54
2023/01/01 11:54:29;;;;;;;4.07;2.55;;;;;;;;;;5070261;28;20235;-55
2023/01/01 11:56:58;;;;;;;4.03;2.45;;;;;;;;;;5068332;28;20240;-53
2023/01/01 11:59:26;;;;;;;3.05;2.17;;;;;;;;;;5086130;28;20709;-54
2023/01/01 12:01:55;;;;;;;5.38;2.38;;;;;;;;;;5073307;28;20329;-54
2023/01/01 12:04:26;;;;;;;3.63;1.80;;;;;;;;;;5064262;28;20245;-54
2023/01/01 12:06:56;;;;;;;7.57;3.00;;;;;;;;;;5065492;28;20694;-55
2023/01/01 12:09:24;;;;;;;5.75;2.42;;;;;;;;;;5064843;28;20318;-54
2023/01/01 12:11:52;;;;;;;6.50;2.30;;;;;;;;;;5065763;28;20397;-54
2023/01/01 12:14:22;;;;;;;2.97;2.20;;;;;;;;;;5080410;28;20646;-55
2023/01/01 12:16:52;;;;;;;3.00;2.00;;;;;;;;;;5083193;28;20239;-54
2023/01/01 12:19:21;;;;;;;2.63;2.10;;;;;;;;;;5086245;28;20412;-55
2023/01/01 12:21:51;;;;;;;3.53;2.42;;;;;;;;;;5074943;28;20666;-55
2023/01/01 12:24:18;;;;;;;5.85;2.30;;;;;;;;;;5065440;28;21048;-55
2023/01/01 12:26:52;;;;;;;4.15;1.80;;;;;;;;;;5078898;28;20230;-56
2023/01/01 12:29:27;;;;;;;3.85;2.38;;;;;;;;;;5085448;28;20312;-55
2023/01/01 12:31:58;;;;;;;5.25;2.47;;;;;;;;;;5085907;28;20320;-54
2023/01/01 12:34:28;;;;;;;6.82;2.47;;;;;;;;;;5085376;28;20439;-55
2023/01/01 12:37:00;;;;;;;3.05;2.10;;;;;;;;;;5076453;28;20227;-55
2023/01/01 12:39:45;;;;;;;2.88;2.05;;;;;;;;;;5073499;28;21248;-59
2023/01/01 12:42:16;;;;;;;3.00;1.95;;;;;;;;;;5072145;28;20246;-55
2023/01/01 12:44:46;;;;;;;4.07;2.53;;;;;;;;;;5065011;28;20231;-53
2023/01/01 12:47:17;;;;;;;4.93;2.40;;;;;;;;;;5064779;28;20289;-54
2023/01/01 12:49:48;;;;;;;3.72;2.28;;;;;;;;;;5065344;28;20238;-54
2023/01/01 12:52:21;;;;;;;3.33;2.40;;;;;;;;;;5071125;28;20238;-54
2023/01/01 12:55:04;;;;;;;4.25;2.20;;;;;;;;;;5073702;28;20800;-54
2023/01/01 12:57:32;;;;;;;3.60;2.33;;;;;;;;;;5084085;28;20234;-54
2023/01/01 13:00:00;;;;;;;4.60;2.15;;;;;;;;;;5079957;28;20242;-54
2023/01/01 13:02:29;;;;;;;2.50;2.17;;;;;;;;;;5063674;28;20235;-54
2023/01/01 13:05:01;;;;;;;6.05;2.55;;;;;;;;;;5068350;28;20234;-55
2023/01/01 13:07:30;;;;;;;3.63;2.85;;;;;;;;;;5076519;28;20223;-54
2023/01/01 13:10:01;;;;;;;3.88;1.92;;;;;;;;;;5076644;28;20237;-53
2023/01/01 13:12:28;;;;;;;4.10;3.05;;;;;;;;;;5068908;28;20231;-55
2023/01/01 13:14:55;;;;;;;3.92;2.10;;;;;;;;;;5069298;28;20434;-54
2023/01/01 13:17:22;;;;;;;2.67;2.10;;;;;;;;;;5083436;28;20234;-53
2023/01/01 13:19:51;;;;;;;2.88;1.85;;;;;;;;;;5083712;28;20223;-54
2023/01/01 13:22:41;;;;;;;3.75;1.85;;;;;;;;;;5069108;28;20239;-54
2023/01/01 13:25:18;;;;;;;1.92;1.70;;;;;;;;;;5064538;28;20235;-53
2023/01/01 13:28:05;;;;;;;5.30;2.38;;;;;;;;;;5087341;28;20250;-55
2023/01/01 13:30:48;;;;;;;6.90;2.53;;;;;;;;;;5095206;28;20257;-56
2023/01/01 13:33:16;;;;;;;3.75;2.03;;;;;;;;;;5089798;28;20223;-54
2023/01/01 13:35:43;;;;;;;3.20;2.10;;;;;;;;;;5079407;28;20614;-54
2023/01/01 13:38:24;;;;;;;4.82;2.13;;;;;;;;;;5087984;28;20789;-55
2023/01/01 13:40:52;;;;;;;8.95;2.17;;;;;;;;;;5072836;28;20231;-55
2023/01/01 13:43:29;;;;;;;6.00;1.95;;;;;;;;;;5071578;28;20248;-54
2023/01/01 13:45:56;;;;;;;3.65;2.53;;;;;;;;;;5078796;28;20292;-54
2023/01/01 13:48:33;;;;;;;3.35;2.30;;;;;;;;;;5076081;28;20228;-54
2023/01/01 13:51:06;;;;;;;3.53;2.67;;;;;;;;;;5082110;28;20227;-55
2023/01/01 13:53:40;;;;;;;3.45;2.17;;;;;;;;;;5075299;28;20235;-54
2023/01/01 13:56:16;;;;;;;3.53;2.53;;;;;;;;;;5072188;28;20299;-55
2023/01/01 13:58:50;;;;;;;4.32;2.35;;;;;;;;;;5079842;28;20225;-55
2023/01/01 14:01:23;;;;;;;2.75;2.30;;;;;;;;;;5076477;28;20309;-55
2023/01/01 14:03:51;;;;;;;4.32;2.50;;;;;;;;;;5077407;28;20245;-54
2023/01/01 14:06:23;;;;;;;4.93;2.40;;;;;;;;;;5081208;28;20253;-55
2023/01/01 14:09:00;;;;;;;8.15;2.67;;;;;;;;;;5085433;28;20226;-56
2023/01/01 14:11:28;;;;;;;2.75;2.13;;;;;;;;;;5082376;28;20258;-56
2023/01/01 14:13:54;;;;;;;6.03;2.20;;;;;;;;;;5083298;28;20231;-56
2023/01/01 14:16:21;;;;;;;4.70;2.50;;;;;;;;;;5074846;28;20317;-56
2023/01/01 14:18:48;;;;;;;6.25;2.40;;;;;;;;;;5065963;28;20235;-55
2023/01/01 14:21:15;;;;;;;3.85;2.33;;;;;;;;;;5080147;28;20702;-55
2023/01/01 14:23:43;;;;;;;5.43;2.63;;;;;;;;;;5077025;28;20249;-55
2023/01/01 14:26:11;;;;;;;6.22;2.63;;;;;;;;;;5073878;28;20230;-58
2023/01/01 14:28:40;;;;;;;6.75;2.20;;;;;;;;;;5076038;28;20343;-56
2023/01/01 14:31:10;;;;;;;2.47;1.95;;;;;;;;;;5073874;28;20907;-54
2023/01/01 14:33:36;;;;;;;6.10;2.95;;;;;;;;;;5068655;28;20340;-55
2023/01/01 14:36:04;;;;;;;4.32;2.78;;;;;;;;;;5071431;28;20235;-55
2023/01/01 14:38:31;;;;;;;5.35;2.88;;;;;;;;;;5077564;28;20621;-56
2023/01/01 14:41:04;;;;;;;6.80;2.65;;;;;;;;;;5080557;28;20243;-56
2023/01/01 14:43:30;;;;;;;2.92;2.17;;;;;;;;;;5083380;28;20246;-55
2023/01/01 14:45:58;;;;;;;5.18;2.53;;;;;;;;;;5078311;28;20284;-57
2023/01/01 14:48:25;;;;;;;3.95;3.22;;;;;;;;;;5079821;28;20238;-57
2023/01/01 14:50:52;;;;;;;5.90;2.30;;;;;;;;;;5088795;28;20261;-56
2023/01/01 14:53:20;;;;;;;2.83;2.30;;;;;;;;;;5079755;28;20237;-55
2023/01/01 14:55:47;;;;;;;3.45;2.13;;;;;;;;;;5081059;28;20226;-55
2023/01/01 14:58:16;;;;;;;9.50;2.85;;;;;;;;;;5081141;28;20258;-56